createdAt,value
2022-11-20T00:00:00.154Z,5.60
2022-11-20T00:02:26.533Z,3.63
2022-11-20T00:04:52.888Z,3.67
2022-11-20T00:07:19.235Z,4.40
2022-11-20T00:09:45.582Z,3.60
2022-11-20T00:12:11.894Z,8.27
2022-11-20T00:14:38.322Z,6.72
2022-11-20T00:17:04.653Z,6.65
2022-11-20T00:19:31.011Z,5.80
2022-11-20T00:21:57.348Z,5.93
2022-11-20T00:24:23.723Z,5.47
2022-11-20T00:26:50.081Z,4.57
2022-11-20T00:29:16.728Z,5.80
2022-11-20T00:31:43.232Z,5.63
2022-11-20T00:34:10.276Z,5.03
2022-11-20T00:36:36.582Z,5.18
2022-11-20T00:39:03.187Z,5.05
2022-11-20T00:41:30.224Z,6.05
2022-11-20T00:43:56.897Z,4.45
2022-11-20T00:46:24.286Z,5.65
2022-11-20T00:48:50.862Z,6.35
2022-11-20T00:51:18.662Z,6.13
2022-11-20T00:53:45.664Z,6.05
2022-11-20T00:56:12.964Z,5.30
2022-11-20T00:58:41.026Z,5.50
2022-11-20T01:01:08.942Z,5.97
2022-11-20T01:03:36.563Z,5.28
2022-11-20T01:06:07.446Z,5.00
2022-11-20T01:08:35.174Z,4.32
2022-11-20T01:11:11.726Z,5.55
2022-11-20T01:13:38.381Z,4.53
2022-11-20T01:16:12.245Z,5.85
2022-11-20T01:18:39.704Z,6.63
2022-11-20T01:21:07.182Z,5.75
2022-11-20T01:23:34.574Z,6.20
2022-11-20T01:26:02.279Z,5.25
2022-11-20T01:28:29.470Z,3.25
2022-11-20T01:30:57.209Z,5.78
2022-11-20T01:33:23.558Z,4.75
2022-11-20T01:35:50.022Z,5.57
2022-11-20T01:38:16.704Z,6.03
2022-11-20T01:40:43.165Z,6.60
2022-11-20T01:43:21.593Z,5.38
2022-11-20T01:45:59.542Z,5.88
2022-11-20T01:48:27.904Z,6.82
2022-11-20T01:50:54.762Z,5.50
2022-11-20T01:53:25.011Z,3.63
2022-11-20T01:55:54.666Z,6.32
2022-11-20T01:58:23.371Z,5.43
2022-11-20T02:00:49.808Z,5.68
2022-11-20T02:03:17.365Z,5.68
2022-11-20T02:05:52.910Z,5.38
2022-11-20T02:08:20.232Z,7.30
2022-11-20T02:10:46.586Z,5.50
2022-11-20T02:13:31.497Z,5.70
2022-11-20T02:15:57.932Z,5.80
2022-11-20T02:18:24.791Z,5.15
2022-11-20T02:20:53.677Z,5.78
2022-11-20T02:23:32.352Z,5.63
2022-11-20T02:25:59.306Z,5.90
2022-11-20T02:28:25.658Z,5.45
2022-11-20T02:30:52.291Z,5.40
2022-11-20T02:33:18.637Z,5.57
2022-11-20T02:35:46.773Z,5.50
2022-11-20T02:38:14.010Z,5.85
2022-11-20T02:40:40.588Z,6.15
2022-11-20T02:43:07.596Z,5.75
2022-11-20T02:45:34.230Z,6.30
2022-11-20T02:48:00.570Z,6.15
2022-11-20T02:50:27.031Z,6.50
2022-11-20T02:52:53.399Z,6.60
2022-11-20T02:55:19.898Z,5.55
2022-11-20T02:57:46.303Z,5.28
2022-11-20T03:00:12.996Z,5.82
2022-11-20T03:02:39.339Z,5.80
2022-11-20T03:05:05.825Z,5.72
2022-11-20T03:07:32.195Z,6.13
2022-11-20T03:09:58.602Z,6.85
2022-11-20T03:12:24.925Z,4.82
2022-11-20T03:14:53.294Z,6.15
2022-11-20T03:17:19.905Z,5.47
2022-11-20T03:19:46.327Z,5.75
2022-11-20T03:22:12.741Z,5.72
2022-11-20T03:24:39.120Z,6.18
2022-11-20T03:27:05.438Z,5.65
2022-11-20T03:29:31.802Z,6.00
2022-11-20T03:31:58.135Z,5.43
2022-11-20T03:34:24.532Z,6.30
2022-11-20T03:36:50.849Z,5.90
2022-11-20T03:39:17.233Z,5.38
2022-11-20T03:41:44.373Z,5.90
2022-11-20T03:44:12.079Z,5.28
2022-11-20T03:46:38.588Z,5.60
2022-11-20T03:49:05.399Z,5.28
2022-11-20T03:51:33.391Z,5.18
2022-11-20T03:54:01.260Z,5.82
2022-11-20T03:56:29.177Z,6.40
2022-11-20T03:58:55.670Z,5.65
2022-11-20T04:01:23.627Z,6.13
2022-11-20T04:03:50.558Z,4.70
2022-11-20T04:06:18.186Z,6.10
2022-11-20T04:08:47.518Z,6.18
2022-11-20T04:11:17.562Z,5.50
2022-11-20T04:13:46.497Z,6.00
2022-11-20T04:16:12.880Z,5.43
2022-11-20T04:18:39.265Z,5.90
2022-11-20T04:21:06.157Z,5.10
2022-11-20T04:23:32.934Z,5.45
2022-11-20T04:26:06.817Z,6.75
2022-11-20T04:28:33.214Z,6.93
2022-11-20T04:31:06.621Z,6.38
2022-11-20T04:33:34.397Z,6.07
2022-11-20T04:36:05.684Z,6.85
2022-11-20T04:38:32.146Z,5.88
2022-11-20T04:40:59.514Z,6.07
2022-11-20T04:43:26.016Z,6.43
2022-11-20T04:45:53.084Z,5.70
2022-11-20T04:48:19.592Z,6.10
2022-11-20T04:50:46.125Z,6.10
2022-11-20T04:53:12.478Z,6.78
2022-11-20T04:55:38.879Z,6.70
2022-11-20T04:58:05.350Z,6.70
2022-11-20T05:00:31.894Z,6.78
2022-11-20T05:02:58.322Z,6.57
2022-11-20T05:05:24.808Z,7.18
2022-11-20T05:07:51.140Z,6.20
2022-11-20T05:10:17.606Z,6.22
2022-11-20T05:12:44.056Z,7.18
2022-11-20T05:15:10.650Z,6.50
2022-11-20T05:17:37.030Z,6.47
2022-11-20T05:20:03.581Z,5.38
2022-11-20T05:22:30.026Z,6.18
2022-11-20T05:24:56.390Z,6.20
2022-11-20T05:27:22.754Z,6.30
2022-11-20T05:29:49.122Z,7.30
2022-11-20T05:32:15.454Z,6.72
2022-11-20T05:34:41.814Z,6.57
2022-11-20T05:37:08.182Z,7.07
2022-11-20T05:39:34.594Z,6.05
2022-11-20T05:42:19.585Z,6.80
2022-11-20T05:44:45.961Z,6.72
2022-11-20T05:47:12.316Z,6.63
2022-11-20T05:49:38.713Z,7.03
2022-11-20T05:52:05.036Z,6.18
2022-11-20T05:54:31.406Z,7.18
2022-11-20T05:56:57.850Z,7.60
2022-11-20T05:59:24.235Z,7.88
2022-11-20T06:01:50.659Z,7.05
2022-11-20T06:04:16.987Z,7.97
2022-11-20T06:06:43.425Z,6.88
2022-11-20T06:09:09.780Z,6.88
2022-11-20T06:11:36.177Z,6.88
2022-11-20T06:14:02.516Z,7.07
2022-11-20T06:16:28.911Z,7.18
2022-11-20T06:18:55.275Z,7.07
2022-11-20T06:21:22.417Z,7.18
2022-11-20T06:23:49.558Z,7.18
2022-11-20T06:26:20.088Z,8.45
2022-11-20T06:28:46.947Z,6.38
2022-11-20T06:31:14.779Z,6.80
2022-11-20T06:33:41.691Z,7.75
2022-11-20T06:36:10.959Z,7.82
2022-11-20T06:38:37.969Z,7.20
2022-11-20T06:41:04.978Z,8.07
2022-11-20T06:43:31.339Z,6.55
2022-11-20T06:45:58.295Z,7.35
2022-11-20T06:48:25.308Z,7.47
2022-11-20T06:50:53.149Z,6.35
2022-11-20T06:53:19.510Z,7.20
2022-11-20T06:55:46.663Z,6.93
2022-11-20T06:58:13.374Z,6.55
2022-11-20T07:00:39.825Z,7.18
2022-11-20T07:03:06.772Z,7.03
2022-11-20T07:05:33.447Z,7.30
2022-11-20T07:07:59.954Z,8.27
2022-11-20T07:10:26.669Z,7.82
2022-11-20T07:12:53.849Z,7.60
2022-11-20T07:15:21.125Z,6.75
2022-11-20T07:17:47.520Z,7.15
2022-11-20T07:20:14.181Z,7.30
2022-11-20T07:22:40.853Z,8.23
2022-11-20T07:25:07.903Z,6.43
2022-11-20T07:27:34.267Z,8.50
2022-11-20T07:30:00.822Z,7.60
2022-11-20T07:32:27.204Z,9.00
2022-11-20T07:34:53.525Z,7.95
2022-11-20T07:37:19.979Z,7.93
2022-11-20T07:39:46.283Z,8.20
2022-11-20T07:42:13.215Z,7.53
2022-11-20T07:44:39.882Z,7.95
2022-11-20T07:47:06.210Z,8.38
2022-11-20T07:49:32.584Z,7.97
2022-11-20T07:52:04.159Z,9.07
2022-11-20T07:54:31.314Z,8.75
2022-11-20T07:56:57.635Z,7.60
2022-11-20T07:59:24.162Z,8.07
2022-11-20T08:01:51.001Z,8.00
2022-11-20T08:04:17.443Z,7.70
2022-11-20T08:06:43.823Z,8.40
2022-11-20T08:09:10.619Z,8.25
2022-11-20T08:12:09.409Z,8.63
2022-11-20T08:14:35.770Z,8.30
2022-11-20T08:17:02.144Z,7.85
2022-11-20T08:19:29.142Z,6.80
2022-11-20T08:21:55.897Z,7.70
2022-11-20T08:24:22.340Z,7.95
2022-11-20T08:26:48.663Z,10.20
2022-11-20T08:29:14.998Z,8.27
2022-11-20T08:31:41.398Z,8.18
2022-11-20T08:34:09.511Z,8.60
2022-11-20T08:36:36.490Z,10.10
2022-11-20T08:39:02.995Z,9.25
2022-11-20T08:41:31.698Z,9.10
2022-11-20T08:43:58.870Z,7.53
2022-11-20T08:46:26.281Z,7.78
2022-11-20T08:48:52.679Z,8.77
2022-11-20T08:51:19.471Z,8.52
2022-11-20T08:53:46.002Z,9.38
2022-11-20T08:56:12.727Z,9.48
2022-11-20T08:59:02.311Z,8.90
2022-11-20T09:01:26.481Z,7.10
2022-11-20T09:03:53.026Z,9.95
2022-11-20T09:06:19.608Z,8.23
2022-11-20T09:08:45.925Z,9.18
2022-11-20T09:11:12.305Z,9.15
2022-11-20T09:13:38.637Z,10.07
2022-11-20T09:16:06.878Z,8.63
2022-11-20T09:18:33.837Z,9.20
2022-11-20T09:21:00.721Z,9.70
2022-11-20T09:23:27.743Z,9.65
2022-11-20T09:25:56.360Z,8.90
2022-11-20T09:28:22.805Z,9.65
2022-11-20T09:30:49.151Z,9.50
2022-11-20T09:33:15.585Z,9.80
2022-11-20T09:35:42.095Z,10.55
2022-11-20T09:38:08.582Z,8.80
2022-11-20T09:40:36.028Z,9.35
2022-11-20T09:43:26.035Z,9.95
2022-11-20T09:46:04.556Z,10.00
2022-11-20T09:48:42.935Z,9.10
2022-11-20T09:51:18.323Z,10.38
2022-11-20T09:53:57.279Z,10.05
2022-11-20T09:56:24.240Z,10.90
2022-11-20T09:58:55.565Z,10.90
2022-11-20T10:01:27.666Z,10.48
2022-11-20T10:03:59.644Z,11.10
2022-11-20T10:06:30.936Z,10.77
2022-11-20T10:09:06.376Z,11.40
2022-11-20T10:11:35.731Z,11.05
2022-11-20T10:14:09.440Z,9.55
2022-11-20T10:16:40.805Z,10.93
2022-11-20T10:19:13.821Z,10.90
2022-11-20T10:21:58.653Z,12.60
2022-11-20T10:24:25.094Z,12.10
2022-11-20T10:27:06.659Z,12.18
2022-11-20T10:29:37.722Z,11.35
2022-11-20T10:32:08.627Z,12.15
2022-11-20T10:34:39.696Z,11.70
2022-11-20T10:37:35.292Z,11.95
2022-11-20T10:40:04.835Z,11.27
2022-11-20T10:42:36.222Z,11.77
2022-11-20T10:45:06.905Z,10.30
2022-11-20T10:47:33.810Z,10.60
2022-11-20T10:50:03.478Z,11.90
2022-11-20T10:52:36.041Z,11.15
2022-11-20T10:55:17.624Z,10.68
2022-11-20T10:57:50.170Z,7.93
2022-11-20T11:00:18.195Z,11.35
2022-11-20T11:02:47.994Z,9.73
2022-11-20T11:05:33.458Z,10.38
2022-11-20T11:07:59.946Z,11.27
2022-11-20T11:10:38.794Z,10.25
2022-11-20T11:13:05.325Z,10.75
2022-11-20T11:15:41.596Z,9.88
2022-11-20T11:18:11.897Z,11.02
2022-11-20T11:20:38.621Z,8.88
2022-11-20T11:23:05.548Z,7.65
2022-11-20T11:25:36.632Z,10.40
2022-11-20T11:28:18.247Z,9.95
2022-11-20T11:30:45.538Z,10.20
2022-11-20T11:33:13.250Z,11.55
2022-11-20T11:35:49.720Z,11.45
2022-11-20T11:38:20.355Z,11.57
2022-11-20T11:40:47.767Z,11.55
2022-11-20T11:43:39.204Z,12.93
2022-11-20T11:46:10.079Z,12.18
2022-11-20T11:48:36.514Z,11.63
2022-11-20T11:51:02.841Z,13.80
2022-11-20T11:53:29.911Z,12.05
2022-11-20T11:56:14.478Z,14.48
2022-11-20T11:58:47.888Z,13.85
2022-11-20T12:01:18.665Z,14.27
2022-11-20T12:03:51.295Z,12.57
2022-11-20T12:06:17.884Z,13.73
2022-11-20T12:08:57.149Z,14.30
2022-11-20T12:11:44.664Z,13.25
2022-11-20T12:14:25.067Z,10.57
2022-11-20T12:16:53.719Z,13.32
2022-11-20T12:19:20.382Z,13.65
2022-11-20T12:21:55.185Z,13.88
2022-11-20T12:24:28.008Z,14.30
2022-11-20T12:27:06.221Z,14.32
2022-11-20T12:29:51.271Z,15.55
2022-11-20T12:32:19.497Z,12.48
2022-11-20T12:34:46.604Z,14.38
2022-11-20T12:37:36.010Z,15.32
2022-11-20T12:40:25.814Z,10.93
2022-11-20T12:43:21.572Z,13.90
2022-11-20T12:45:57.199Z,14.80
2022-11-20T12:48:23.514Z,15.13
2022-11-20T12:51:13.996Z,15.80
2022-11-20T12:53:57.893Z,11.88
2022-11-20T12:56:43.030Z,15.32
2022-11-20T12:59:09.373Z,15.63
2022-11-20T13:01:48.749Z,15.15
2022-11-20T13:04:18.148Z,12.48
2022-11-20T13:06:45.077Z,15.55
2022-11-20T13:09:18.526Z,15.88
2022-11-20T13:11:50.514Z,16.33
2022-11-20T13:14:35.700Z,13.75
2022-11-20T13:17:06.928Z,11.43
2022-11-20T13:19:34.065Z,15.77
2022-11-20T13:22:00.760Z,14.15
2022-11-20T13:24:28.735Z,13.73
2022-11-20T13:27:01.664Z,15.68
2022-11-20T13:29:28.250Z,13.52
2022-11-20T13:32:07.593Z,13.43
2022-11-20T13:34:34.988Z,14.80
2022-11-20T13:37:01.723Z,15.90
2022-11-20T13:39:29.290Z,13.70
2022-11-20T13:42:00.112Z,13.38
2022-11-20T13:44:44.996Z,15.35
2022-11-20T13:47:22.016Z,16.10
2022-11-20T13:49:49.356Z,17.65
2022-11-20T13:52:34.287Z,13.63
2022-11-20T13:55:20.925Z,16.60
2022-11-20T13:57:50.244Z,14.30
2022-11-20T14:00:18.026Z,16.50
2022-11-20T14:02:45.143Z,14.15
2022-11-20T14:05:31.983Z,17.38
2022-11-20T14:07:58.771Z,14.07
2022-11-20T14:10:31.647Z,15.35
2022-11-20T14:12:58.794Z,17.73
2022-11-20T14:15:30.342Z,16.13
2022-11-20T14:17:57.380Z,14.75
2022-11-20T14:20:26.439Z,16.77
2022-11-20T14:22:53.816Z,16.40
2022-11-20T14:25:24.443Z,12.25
2022-11-20T14:27:55.049Z,16.92
2022-11-20T14:30:23.031Z,17.30
2022-11-20T14:32:50.118Z,17.65
2022-11-20T14:35:24.190Z,17.40
2022-11-20T14:37:50.756Z,18.63
2022-11-20T14:40:28.031Z,16.90
2022-11-20T14:42:54.470Z,18.08
2022-11-20T14:45:21.517Z,11.88
2022-11-20T14:47:48.523Z,12.95
2022-11-20T14:50:41.357Z,15.38
2022-11-20T14:53:07.702Z,15.63
2022-11-20T14:55:36.205Z,15.65
2022-11-20T14:58:04.680Z,14.90
2022-11-20T15:00:32.236Z,15.10
2022-11-20T15:02:58.739Z,14.35
2022-11-20T15:05:26.850Z,15.98
2022-11-20T15:08:06.250Z,15.20
2022-11-20T15:10:32.692Z,13.60
2022-11-20T15:13:07.227Z,15.25
2022-11-20T15:15:42.008Z,15.90
2022-11-20T15:18:13.438Z,15.30
2022-11-20T15:20:42.140Z,16.40
2022-11-20T15:23:21.200Z,16.55
2022-11-20T15:25:48.384Z,15.20
2022-11-20T15:28:18.100Z,15.13
2022-11-20T15:30:45.282Z,15.43
2022-11-20T15:33:11.888Z,16.45
2022-11-20T15:35:38.249Z,14.30
2022-11-20T15:38:04.705Z,11.75
2022-11-20T15:40:31.060Z,15.50
2022-11-20T15:43:13.243Z,13.98
2022-11-20T15:45:47.535Z,13.70
2022-11-20T15:48:25.837Z,12.80
2022-11-20T15:50:58.920Z,12.93
2022-11-20T15:53:25.292Z,12.90
2022-11-20T15:55:54.215Z,12.45
2022-11-20T15:58:20.675Z,11.15
2022-11-20T16:00:47.134Z,12.90
2022-11-20T16:03:13.990Z,12.88
2022-11-20T16:05:40.459Z,11.68
2022-11-20T16:08:11.254Z,12.57
2022-11-20T16:10:38.378Z,11.75
2022-11-20T16:13:23.360Z,11.60
2022-11-20T16:15:56.145Z,11.70
2022-11-20T16:18:22.578Z,11.27
2022-11-20T16:20:50.152Z,11.18
2022-11-20T16:23:16.666Z,8.68
2022-11-20T16:25:43.825Z,9.63
2022-11-20T16:28:14.654Z,8.88
2022-11-20T16:30:44.017Z,10.52
2022-11-20T16:33:11.459Z,10.07
2022-11-20T16:35:37.961Z,11.18
2022-11-20T16:38:04.460Z,10.32
2022-11-20T16:40:30.791Z,10.15
2022-11-20T16:43:16.105Z,11.05
2022-11-20T16:45:43.327Z,10.30
2022-11-20T16:48:13.677Z,9.65
2022-11-20T16:50:45.885Z,9.10
2022-11-20T16:53:12.198Z,9.30
2022-11-20T16:55:38.536Z,9.20
2022-11-20T16:58:04.908Z,9.20
2022-11-20T17:00:31.215Z,9.07
2022-11-20T17:02:57.513Z,8.90
2022-11-20T17:05:24.174Z,6.85
2022-11-20T17:07:50.589Z,8.55
2022-11-20T17:10:16.983Z,9.27
2022-11-20T17:12:44.743Z,9.35
2022-11-20T17:15:11.272Z,9.48
2022-11-20T17:17:37.952Z,9.05
2022-11-20T17:20:04.489Z,7.40
2022-11-20T17:22:31.570Z,9.02
2022-11-20T17:24:58.046Z,8.43
2022-11-20T17:27:29.745Z,8.80
2022-11-20T17:29:57.704Z,9.20
2022-11-20T17:32:24.085Z,8.63
2022-11-20T17:34:50.649Z,8.90
2022-11-20T17:37:17.045Z,8.75
2022-11-20T17:39:44.817Z,9.18
2022-11-20T17:42:29.998Z,9.27
2022-11-20T17:44:58.820Z,7.68
2022-11-20T17:47:25.614Z,8.15
2022-11-20T17:49:52.626Z,6.90
2022-11-20T17:52:19.006Z,8.07
2022-11-20T17:54:45.382Z,8.88
2022-11-20T17:57:30.577Z,9.38
2022-11-20T17:59:56.999Z,8.55
2022-11-20T18:02:23.322Z,7.93
2022-11-20T18:04:50.066Z,8.05
2022-11-20T18:07:16.622Z,8.95
2022-11-20T18:09:43.174Z,8.68
2022-11-20T18:12:09.660Z,8.73
2022-11-20T18:14:36.599Z,7.00
2022-11-20T18:17:07.352Z,8.73
2022-11-20T18:19:37.641Z,8.63
2022-11-20T18:22:08.800Z,6.28
2022-11-20T18:24:39.545Z,7.63
2022-11-20T18:27:07.336Z,8.45
2022-11-20T18:29:35.139Z,6.15
2022-11-20T18:32:01.752Z,9.75
2022-11-20T18:34:28.251Z,8.75
2022-11-20T18:36:54.628Z,7.05
2022-11-20T18:39:21.097Z,8.27
2022-11-20T18:42:06.157Z,8.95
2022-11-20T18:44:51.486Z,7.65
2022-11-20T18:47:19.263Z,7.87
2022-11-20T18:49:51.030Z,6.32
2022-11-20T18:52:18.602Z,7.97
2022-11-20T18:54:45.040Z,7.70
2022-11-20T18:57:14.557Z,6.32
2022-11-20T18:59:42.618Z,7.30
2022-11-20T19:02:15.932Z,6.95
2022-11-20T19:04:42.409Z,8.10
2022-11-20T19:07:11.908Z,8.63
2022-11-20T19:09:39.831Z,8.18
2022-11-20T19:12:07.413Z,6.63
2022-11-20T19:14:33.728Z,9.23
2022-11-20T19:17:00.150Z,8.55
2022-11-20T19:19:26.636Z,8.80
2022-11-20T19:21:53.320Z,6.68
2022-11-20T19:24:19.743Z,10.52
2022-11-20T19:26:46.113Z,10.43
2022-11-20T19:29:13.902Z,8.30
2022-11-20T19:31:40.337Z,9.80
2022-11-20T19:34:06.725Z,7.00
2022-11-20T19:36:34.045Z,10.48
2022-11-20T19:39:01.012Z,11.55
2022-11-20T19:41:31.664Z,11.00
2022-11-20T19:44:12.516Z,10.20
2022-11-20T19:46:39.438Z,9.30
2022-11-20T19:49:07.520Z,10.35
2022-11-20T19:51:34.925Z,6.57
2022-11-20T19:54:01.468Z,8.52
2022-11-20T19:56:29.068Z,6.55
2022-11-20T19:58:56.109Z,9.07
2022-11-20T20:01:23.990Z,7.75
2022-11-20T20:03:50.971Z,8.82
2022-11-20T20:06:18.611Z,6.93
2022-11-20T20:08:45.377Z,9.05
2022-11-20T20:11:12.743Z,6.50
2022-11-20T20:13:39.222Z,9.57
2022-11-20T20:16:06.777Z,10.02
2022-11-20T20:18:33.250Z,9.32
2022-11-20T20:21:03.957Z,9.65
2022-11-20T20:23:30.325Z,11.73
2022-11-20T20:25:56.791Z,11.07
2022-11-20T20:28:23.183Z,11.10
2022-11-20T20:30:49.611Z,9.82
2022-11-20T20:33:16.055Z,10.40
2022-11-20T20:35:42.840Z,11.00
2022-11-20T20:38:09.441Z,7.75
2022-11-20T20:40:35.919Z,9.98
2022-11-20T20:43:02.305Z,10.07
2022-11-20T20:45:28.719Z,9.85
2022-11-20T20:47:56.124Z,10.18
2022-11-20T20:50:22.572Z,10.18
2022-11-20T20:52:49.046Z,10.80
2022-11-20T20:55:15.440Z,11.40
2022-11-20T20:57:44.785Z,11.32
2022-11-20T21:00:11.428Z,10.77
2022-11-20T21:02:37.783Z,7.53
2022-11-20T21:05:04.409Z,9.38
2022-11-20T21:07:30.763Z,8.27
2022-11-20T21:09:57.115Z,11.30
2022-11-20T21:12:23.618Z,9.93
2022-11-20T21:14:50.044Z,9.90
2022-11-20T21:17:16.551Z,10.68
2022-11-20T21:19:43.214Z,10.63
2022-11-20T21:22:09.603Z,11.35
2022-11-20T21:24:36.670Z,10.15
2022-11-20T21:27:04.788Z,9.60
2022-11-20T21:29:31.460Z,8.80
2022-11-20T21:31:58.080Z,8.15
2022-11-20T21:34:25.209Z,9.40
2022-11-20T21:36:52.011Z,9.85
2022-11-20T21:39:21.769Z,9.23
2022-11-20T21:41:48.154Z,10.25
2022-11-20T21:44:31.605Z,8.75
2022-11-20T21:46:58.439Z,6.45
2022-11-20T21:49:25.023Z,8.77
2022-11-20T21:51:51.767Z,10.18
2022-11-20T21:54:18.088Z,9.73
2022-11-20T21:56:44.506Z,8.63
2022-11-20T21:59:12.285Z,10.65
2022-11-20T22:01:38.930Z,7.90
2022-11-20T22:04:07.727Z,10.48
2022-11-20T22:06:34.387Z,10.50
2022-11-20T22:09:01.248Z,9.95
2022-11-20T22:11:27.702Z,7.65
2022-11-20T22:14:12.777Z,8.85
2022-11-20T22:16:39.087Z,8.50
2022-11-20T22:19:05.809Z,7.82
2022-11-20T22:21:32.732Z,8.20
2022-11-20T22:23:59.270Z,9.50
2022-11-20T22:26:27.516Z,9.98
2022-11-20T22:28:54.850Z,10.88
2022-11-20T22:31:22.063Z,11.02
2022-11-20T22:33:48.754Z,12.48
2022-11-20T22:36:19.250Z,11.90
2022-11-20T22:38:45.577Z,12.05
2022-11-20T22:41:16.130Z,12.13
2022-11-20T22:43:42.867Z,11.32
2022-11-20T22:46:10.965Z,10.57
2022-11-20T22:48:38.956Z,10.98
2022-11-20T22:51:14.705Z,10.20
2022-11-20T22:53:41.864Z,9.30
2022-11-20T22:56:09.363Z,10.65
2022-11-20T22:58:36.840Z,9.80
2022-11-20T23:01:13.807Z,11.18
2022-11-20T23:03:41.117Z,9.38
2022-11-20T23:06:07.824Z,9.25
2022-11-20T23:08:34.174Z,7.97
2022-11-20T23:11:01.374Z,10.82
2022-11-20T23:13:28.141Z,10.45
2022-11-20T23:15:55.036Z,10.75
2022-11-20T23:18:21.688Z,9.15
2022-11-20T23:20:48.130Z,11.93
2022-11-20T23:23:14.473Z,10.50
2022-11-20T23:25:40.813Z,10.75
2022-11-20T23:28:07.315Z,12.15
2022-11-20T23:30:33.654Z,12.00
2022-11-20T23:32:59.996Z,9.82
2022-11-20T23:35:26.423Z,6.00
2022-11-20T23:37:52.776Z,9.88
2022-11-20T23:40:19.130Z,10.35
2022-11-20T23:43:04.042Z,10.98
2022-11-20T23:45:30.505Z,10.65
2022-11-20T23:47:56.907Z,9.32
2022-11-20T23:50:23.279Z,10.20
2022-11-20T23:52:49.613Z,7.47
2022-11-20T23:55:16.042Z,8.50
2022-11-20T23:57:42.341Z,7.03
